Time;durP1;ratioP1;P1;durP2;ratioP2;P2;SDS_P1;SDS_P2;PMS_P1;PMS_P2;Temp;Humidity;BMP_temperature;BMP_pressure;BME280_temperature;BME280_humidity;BME280_pressure;Samples;Min_cycle;Max_cycle;Signal;HPM_P1;HPM_P2
2024/03/07 00:02:24;;;;;;;13.52;7.80;;;8.40;99.90;;;;;;5056887;28;20428;-58
2024/03/07 00:04:51;;;;;;;11.68;6.55;;;8.30;99.90;;;;;;5056696;28;20843;-57
2024/03/07 00:07:18;;;;;;;13.38;7.88;;;8.20;99.90;;;;;;5056603;28;20425;-58
2024/03/07 00:09:46;;;;;;;12.35;7.30;;;8.20;99.90;;;;;;5056939;28;20522;-58
2024/03/07 00:12:13;;;;;;;11.87;7.57;;;8.30;99.90;;;;;;5056884;28;20425;-57
2024/03/07 00:14:40;;;;;;;11.83;7.87;;;8.30;99.90;;;;;;5056612;28;20781;-58
2024/03/07 00:17:08;;;;;;;13.10;7.70;;;8.30;99.90;;;;;;5062246;28;20431;-59
2024/03/07 00:19:39;;;;;;;13.23;7.60;;;8.20;99.90;;;;;;5076674;28;20518;-57
2024/03/07 00:22:06;;;;;;;13.23;7.50;;;8.20;99.90;;;;;;5073628;28;20439;-57
2024/03/07 00:24:33;;;;;;;12.30;6.70;;;8.10;99.90;;;;;;5075018;28;20858;-57
2024/03/07 00:27:00;;;;;;;12.85;7.35;;;8.20;99.90;;;;;;5071282;28;20539;-57
2024/03/07 00:29:28;;;;;;;13.65;7.50;;;8.20;99.90;;;;;;5074418;28;20518;-56
2024/03/07 00:31:55;;;;;;;13.77;7.93;;;8.10;99.90;;;;;;5085321;28;20440;-58
2024/03/07 00:34:23;;;;;;;14.88;7.88;;;8.10;99.90;;;;;;5088513;28;20423;-57
2024/03/07 00:36:51;;;;;;;13.75;7.80;;;8.00;99.90;;;;;;5075867;28;20435;-58
2024/03/07 00:39:19;;;;;;;13.32;6.68;;;8.00;99.90;;;;;;5075192;28;20896;-58
2024/03/07 00:41:47;;;;;;;10.63;6.72;;;8.10;99.90;;;;;;5076409;28;20838;-55
2024/03/07 00:44:14;;;;;;;14.70;7.55;;;8.00;99.90;;;;;;5073698;28;20424;-58
2024/03/07 00:46:41;;;;;;;12.00;7.10;;;8.00;99.90;;;;;;5061713;28;20430;-56
2024/03/07 00:49:08;;;;;;;12.55;7.30;;;7.80;99.90;;;;;;5076629;28;20459;-57
2024/03/07 00:51:36;;;;;;;13.32;6.78;;;7.80;99.90;;;;;;5076567;28;20424;-56
2024/03/07 00:54:07;;;;;;;13.35;8.00;;;7.90;99.90;;;;;;5075940;28;20438;-59
2024/03/07 00:56:34;;;;;;;14.23;6.72;;;7.90;99.90;;;;;;5075814;28;20423;-58
2024/03/07 00:59:00;;;;;;;13.18;7.78;;;7.80;99.90;;;;;;5076783;28;20793;-57
2024/03/07 01:01:27;;;;;;;15.40;8.73;;;7.70;99.90;;;;;;5074868;28;20541;-56
2024/03/07 01:03:56;;;;;;;17.27;9.10;;;7.80;99.90;;;;;;5076830;28;20443;-55
2024/03/07 01:06:25;;;;;;;15.25;7.72;;;7.80;99.90;;;;;;5075286;28;20432;-57
2024/03/07 01:08:53;;;;;;;15.93;8.52;;;7.80;99.90;;;;;;5069193;28;20718;-54
2024/03/07 01:11:21;;;;;;;14.95;9.20;;;7.60;99.90;;;;;;5064477;28;20498;-56
2024/03/07 01:13:47;;;;;;;16.08;8.30;;;7.60;99.90;;;;;;5058055;28;20745;-55
2024/03/07 01:16:15;;;;;;;15.05;9.13;;;7.60;99.90;;;;;;5075533;28;20822;-58
2024/03/07 01:18:41;;;;;;;13.55;7.88;;;7.60;99.90;;;;;;5075928;28;20698;-55
2024/03/07 01:21:09;;;;;;;14.00;8.25;;;7.50;99.90;;;;;;5075465;28;20790;-57
2024/03/07 01:23:36;;;;;;;17.55;9.55;;;7.50;99.90;;;;;;5075737;28;20437;-57
2024/03/07 01:26:05;;;;;;;14.48;8.55;;;7.50;99.90;;;;;;5075875;28;20424;-58
2024/03/07 01:28:32;;;;;;;13.40;8.63;;;7.50;99.90;;;;;;5075701;28;20428;-56
2024/03/07 01:30:59;;;;;;;16.42;8.93;;;7.60;99.90;;;;;;5080432;28;20520;-56
2024/03/07 01:33:29;;;;;;;13.73;8.50;;;7.60;99.90;;;;;;5075160;28;20435;-58
2024/03/07 01:35:56;;;;;;;15.65;8.10;;;7.70;99.90;;;;;;5075090;28;20431;-57
2024/03/07 01:38:23;;;;;;;14.57;8.70;;;7.80;99.90;;;;;;5076228;28;20469;-58
2024/03/07 01:40:50;;;;;;;14.93;9.05;;;7.90;99.90;;;;;;5078780;28;20436;-56
2024/03/07 01:43:18;;;;;;;15.83;9.17;;;7.80;99.90;;;;;;5079822;28;20461;-58
2024/03/07 01:45:47;;;;;;;14.18;8.60;;;7.70;1.00;;;;;;5079620;28;20777;-58
2024/03/07 01:48:22;;;;;;;18.45;9.45;;;7.60;99.90;;;;;;5079594;28;20521;-58
2024/03/07 01:50:49;;;;;;;15.35;8.40;;;7.50;99.90;;;;;;5079550;28;20540;-54
2024/03/07 01:53:16;;;;;;;19.85;10.02;;;7.30;1.00;;;;;;5079330;28;20502;-55
2024/03/07 01:55:44;;;;;;;14.32;8.27;;;7.40;99.90;;;;;;5078823;28;20427;-57
2024/03/07 01:58:17;;;;;;;15.90;9.27;;;7.40;99.90;;;;;;5079320;28;20438;-56
2024/03/07 02:00:45;;;;;;;16.95;9.68;;;7.50;99.90;;;;;;5079496;28;20423;-57
2024/03/07 02:03:13;;;;;;;19.05;10.07;;;7.50;99.90;;;;;;5079068;28;20780;-57
2024/03/07 02:05:40;;;;;;;18.23;10.80;;;7.20;99.90;;;;;;5078120;28;20446;-56
2024/03/07 02:08:07;;;;;;;18.17;10.40;;;7.00;1.00;;;;;;5078138;28;20940;-55
2024/03/07 02:10:34;;;;;;;20.15;11.38;;;7.10;99.90;;;;;;5079345;28;20822;-56
2024/03/07 02:13:02;;;;;;;18.33;8.70;;;7.10;99.90;;;;;;5079195;28;20451;-56
2024/03/07 02:15:29;;;;;;;15.55;9.90;;;7.10;99.90;;;;;;5079540;28;20508;-56
2024/03/07 02:17:58;;;;;;;18.00;9.93;;;7.10;99.90;;;;;;5079110;28;20522;-57
2024/03/07 02:20:25;;;;;;;19.30;10.83;;;7.10;99.90;;;;;;5079277;28;20420;-61
2024/03/07 02:22:53;;;;;;;18.25;10.43;;;6.90;99.90;;;;;;5078948;28;20881;-54
2024/03/07 02:25:20;;;;;;;18.70;10.27;;;6.90;99.90;;;;;;5078575;28;20526;-55
2024/03/07 02:27:47;;;;;;;18.97;10.27;;;6.90;99.90;;;;;;5078454;28;20431;-57
2024/03/07 02:30:14;;;;;;;17.65;10.40;;;7.00;99.90;;;;;;5080356;28;20517;-55
2024/03/07 02:32:41;;;;;;;17.55;10.95;;;7.00;99.90;;;;;;5099207;28;20426;-57
2024/03/07 02:35:09;;;;;;;17.02;9.45;;;7.00;99.90;;;;;;5085651;28;20514;-54
2024/03/07 02:37:36;;;;;;;15.90;9.55;;;7.00;99.90;;;;;;5077735;28;20424;-57
2024/03/07 02:40:05;;;;;;;15.43;9.80;;;6.90;1.00;;;;;;5079227;28;20430;-56
2024/03/07 02:42:32;;;;;;;21.08;11.60;;;6.80;99.90;;;;;;5079318;28;20435;-55
2024/03/07 02:44:59;;;;;;;17.60;10.43;;;6.80;1.00;;;;;;5078822;28;20514;-56
2024/03/07 02:47:29;;;;;;;19.45;10.73;;;6.70;1.00;;;;;;5078667;28;20488;-56
2024/03/07 02:49:55;;;;;;;18.95;10.80;;;6.70;99.90;;;;;;5077902;28;20419;-55
2024/03/07 02:52:22;;;;;;;20.90;12.30;;;6.70;99.90;;;;;;5078353;28;20419;-55
2024/03/07 02:54:49;;;;;;;16.88;10.65;;;6.60;99.90;;;;;;5078158;28;20529;-55
2024/03/07 02:57:17;;;;;;;18.70;11.13;;;6.40;99.90;;;;;;5078293;28;20514;-56
2024/03/07 02:59:43;;;;;;;17.33;10.52;;;6.20;1.00;;;;;;5078135;28;20526;-54
2024/03/07 03:02:10;;;;;;;17.38;11.00;;;6.30;1.00;;;;;;5077930;28;20518;-54
2024/03/07 03:04:37;;;;;;;21.20;11.40;;;6.40;1.00;;;;;;5077845;28;20506;-56
2024/03/07 03:07:05;;;;;;;19.13;11.82;;;6.40;99.90;;;;;;5077930;28;20518;-54
2024/03/07 03:09:33;;;;;;;20.10;11.52;;;6.50;99.90;;;;;;5078264;28;20821;-55
2024/03/07 03:12:00;;;;;;;20.92;10.52;;;6.30;99.90;;;;;;5077752;28;20525;-53
2024/03/07 03:14:28;;;;;;;19.95;12.05;;;6.20;1.00;;;;;;5078491;28;20420;-56
2024/03/07 03:16:56;;;;;;;20.38;11.70;;;6.10;1.00;;;;;;5077976;28;20440;-53
2024/03/07 03:19:24;;;;;;;17.05;10.80;;;5.90;1.00;;;;;;5078204;28;20439;-54
2024/03/07 03:21:51;;;;;;;21.33;12.85;;;6.10;1.00;;;;;;5078068;28;20625;-55
2024/03/07 03:24:17;;;;;;;21.65;12.52;;;6.20;1.00;;;;;;5077779;28;20463;-54
2024/03/07 03:26:44;;;;;;;20.17;11.53;;;6.00;99.90;;;;;;5077038;28;20538;-54
2024/03/07 03:29:13;;;;;;;20.23;12.03;;;5.80;1.00;;;;;;5077386;28;20424;-55
2024/03/07 03:31:41;;;;;;;19.58;11.43;;;5.80;1.00;;;;;;5083310;28;20706;-55
2024/03/07 03:34:09;;;;;;;22.75;12.05;;;5.60;1.00;;;;;;5077243;28;21001;-53
2024/03/07 03:36:36;;;;;;;22.30;12.67;;;5.60;1.00;;;;;;5077206;28;20551;-52
2024/03/07 03:39:03;;;;;;;23.02;12.13;;;5.60;99.90;;;;;;5077182;28;20427;-55
2024/03/07 03:41:30;;;;;;;21.17;12.52;;;5.70;99.90;;;;;;5077229;28;20443;-57
2024/03/07 03:43:58;;;;;;;20.35;11.57;;;5.70;99.90;;;;;;5077838;28;20499;-53
2024/03/07 03:46:25;;;;;;;23.17;12.77;;;5.50;99.90;;;;;;5077782;28;20439;-57
2024/03/07 03:48:53;;;;;;;20.05;12.07;;;5.40;99.90;;;;;;5077861;28;20510;-53
2024/03/07 03:51:21;;;;;;;22.48;12.57;;;5.30;99.90;;;;;;5077339;28;20514;-54
2024/03/07 03:53:48;;;;;;;20.08;11.25;;;5.20;99.90;;;;;;5077243;28;20427;-56
2024/03/07 03:56:17;;;;;;;26.23;13.77;;;5.30;99.90;;;;;;5077080;28;20426;-52
2024/03/07 03:58:44;;;;;;;21.65;13.23;;;5.40;99.90;;;;;;5075847;28;20434;-56
2024/03/07 04:01:14;;;;;;;22.33;10.70;;;5.50;99.90;;;;;;5076816;28;20431;-55
2024/03/07 04:03:41;;;;;;;23.42;13.50;;;5.40;99.90;;;;;;5076217;28;20737;-57
2024/03/07 04:06:09;;;;;;;22.20;12.15;;;5.40;99.90;;;;;;5077101;28;20522;-55
2024/03/07 04:08:36;;;;;;;21.60;12.07;;;5.40;99.90;;;;;;5074725;28;20514;-52
2024/03/07 04:11:04;;;;;;;21.70;12.95;;;5.40;99.90;;;;;;5075703;28;20794;-55
2024/03/07 04:13:31;;;;;;;23.27;12.63;;;5.50;99.90;;;;;;5074358;28;20412;-52
2024/03/07 04:15:59;;;;;;;20.00;10.80;;;5.30;99.90;;;;;;5075906;28;20431;-53
2024/03/07 04:18:26;;;;;;;21.48;12.80;;;5.40;99.90;;;;;;5076157;28;20461;-53
2024/03/07 04:20:54;;;;;;;20.13;12.07;;;5.40;99.90;;;;;;5075879;28;20428;-56
2024/03/07 04:23:22;;;;;;;18.73;11.40;;;5.50;99.90;;;;;;5076178;28;20850;-53
2024/03/07 04:25:51;;;;;;;19.95;11.90;;;5.50;99.90;;;;;;5076389;28;20498;-56
2024/03/07 04:28:19;;;;;;;20.07;12.93;;;5.50;1.00;;;;;;5076758;28;20509;-56
2024/03/07 04:30:46;;;;;;;20.98;12.20;;;5.40;99.90;;;;;;5082665;28;20524;-57
2024/03/07 04:33:13;;;;;;;19.95;11.55;;;5.30;99.90;;;;;;5095793;28;20509;-57
2024/03/07 04:35:40;;;;;;;18.20;10.35;;;5.40;1.00;;;;;;5096929;28;20476;-56
2024/03/07 04:38:11;;;;;;;21.80;12.30;;;5.30;99.90;;;;;;5097009;28;20538;-53
2024/03/07 04:40:39;;;;;;;19.65;10.95;;;5.30;99.90;;;;;;5096783;28;20475;-54
2024/03/07 04:43:07;;;;;;;19.67;10.98;;;5.20;99.90;;;;;;5085823;28;20805;-54
2024/03/07 04:45:34;;;;;;;17.95;11.43;;;5.10;1.00;;;;;;5073667;28;20463;-54
2024/03/07 04:48:01;;;;;;;18.00;10.85;;;5.20;7.90;;;;;;5074037;28;20842;-56
2024/03/07 04:50:28;;;;;;;21.55;11.30;;;5.30;99.90;;;;;;5074161;28;20813;-55
2024/03/07 04:52:55;;;;;;;19.13;11.20;;;5.30;99.90;;;;;;5074375;28;20813;-54
2024/03/07 04:55:22;;;;;;;17.85;9.55;;;5.20;99.90;;;;;;5074553;28;20832;-56
2024/03/07 04:57:51;;;;;;;14.88;9.70;;;5.10;1.00;;;;;;5075341;28;20506;-55
2024/03/07 05:00:19;;;;;;;18.95;11.30;;;5.10;1.00;;;;;;5074992;28;20526;-56
2024/03/07 05:02:48;;;;;;;15.18;10.20;;;5.00;1.00;;;;;;5075603;28;20431;-56
2024/03/07 05:05:18;;;;;;;18.03;10.27;;;5.10;1.00;;;;;;5076343;28;20733;-53
2024/03/07 05:07:45;;;;;;;21.27;12.23;;;5.20;1.00;;;;;;5076366;28;20434;-51
2024/03/07 05:10:12;;;;;;;17.15;10.40;;;5.10;99.90;;;;;;5075602;28;20438;-56
2024/03/07 05:12:39;;;;;;;20.63;12.40;;;5.10;99.90;;;;;;5075578;28;20427;-56
2024/03/07 05:15:09;;;;;;;22.20;12.70;;;5.00;99.90;;;;;;5082115;28;20522;-54
2024/03/07 05:17:38;;;;;;;17.40;10.18;;;4.90;1.00;;;;;;5082330;28;20436;-55
2024/03/07 05:20:09;;;;;;;18.73;10.70;;;4.70;99.90;;;;;;5082922;28;20416;-54
2024/03/07 05:22:38;;;;;;;19.10;10.55;;;4.70;1.00;;;;;;5082512;28;20501;-54
2024/03/07 05:25:06;;;;;;;20.40;11.27;;;5.00;24.50;;;;;;5081653;28;20431;-55
2024/03/07 05:27:35;;;;;;;18.55;10.80;;;5.10;99.90;;;;;;5080970;28;20877;-56
2024/03/07 05:30:02;;;;;;;19.55;10.70;;;5.00;99.90;;;;;;5081301;28;20466;-54
2024/03/07 05:32:31;;;;;;;24.88;12.07;;;5.00;99.90;;;;;;5060931;28;20531;-56
2024/03/07 05:34:58;;;;;;;18.92;10.70;;;4.90;99.90;;;;;;5078046;28;20764;-57
2024/03/07 05:37:24;;;;;;;21.13;12.13;;;4.90;1.00;;;;;;5083951;28;20861;-56
2024/03/07 05:39:52;;;;;;;18.73;10.93;;;4.80;1.00;;;;;;5082362;28;20841;-57
2024/03/07 05:42:24;;;;;;;18.33;11.05;;;4.90;1.00;;;;;;5063896;28;20504;-55
2024/03/07 05:44:53;;;;;;;20.77;11.80;;;5.10;99.90;;;;;;5081322;28;20618;-57
2024/03/07 05:47:21;;;;;;;18.70;11.38;;;5.10;99.90;;;;;;5081553;28;20426;-57
2024/03/07 05:49:50;;;;;;;22.00;11.30;;;4.90;99.90;;;;;;5081433;28;20427;-56
2024/03/07 05:52:17;;;;;;;19.35;11.65;;;4.70;1.00;;;;;;5082127;28;20801;-57
2024/03/07 05:54:45;;;;;;;18.63;11.63;;;4.90;1.00;;;;;;5081815;28;20501;-53
2024/03/07 05:57:12;;;;;;;18.17;11.50;;;4.90;99.90;;;;;;5080941;28;20537;-55
2024/03/07 05:59:39;;;;;;;19.52;11.75;;;4.70;99.90;;;;;;5078194;28;20720;-57
2024/03/07 06:02:06;;;;;;;18.88;11.70;;;4.70;1.00;;;;;;5077715;28;20430;-57
2024/03/07 06:04:34;;;;;;;19.27;10.90;;;4.70;1.00;;;;;;5072705;28;20892;-55
2024/03/07 06:07:02;;;;;;;21.50;11.90;;;4.60;99.90;;;;;;5063566;28;20731;-56
2024/03/07 06:09:29;;;;;;;17.92;10.80;;;4.60;1.00;;;;;;5068568;28;20790;-56
2024/03/07 06:11:56;;;;;;;21.27;11.82;;;4.60;1.00;;;;;;5073197;28;20858;-54
2024/03/07 06:14:24;;;;;;;20.20;10.73;;;4.70;1.00;;;;;;5071769;28;20424;-57
2024/03/07 06:16:51;;;;;;;17.67;9.75;;;4.60;99.90;;;;;;5070151;28;20773;-56
2024/03/07 06:19:18;;;;;;;19.80;10.80;;;4.50;1.00;;;;;;5059675;28;20433;-57
2024/03/07 06:21:46;;;;;;;20.63;9.77;;;4.60;1.00;;;;;;5072585;28;20423;-58
2024/03/07 06:24:15;;;;;;;17.83;10.88;;;4.70;99.90;;;;;;5079785;28;20438;-57
2024/03/07 06:26:59;;;;;;;19.55;10.40;;;4.80;99.90;;;;;;5075973;28;20427;-57
2024/03/07 06:29:27;;;;;;;16.00;9.52;;;4.90;99.90;;;;;;5078280;28;20702;-59
2024/03/07 06:31:54;;;;;;;16.27;9.50;;;4.80;99.90;;;;;;5080038;28;20425;-59
2024/03/07 06:34:21;;;;;;;17.02;10.02;;;5.00;1.00;;;;;;5074337;28;20857;-59
2024/03/07 06:36:48;;;;;;;16.23;9.90;;;4.80;99.90;;;;;;5076746;28;20427;-58
2024/03/07 06:39:16;;;;;;;21.20;11.47;;;4.80;99.90;;;;;;5077403;28;20530;-58
2024/03/07 06:41:45;;;;;;;18.35;9.50;;;4.80;99.90;;;;;;5078236;28;20423;-58
2024/03/07 06:44:12;;;;;;;16.00;8.80;;;4.80;99.90;;;;;;5075863;28;20446;-58
2024/03/07 06:46:39;;;;;;;15.93;8.57;;;4.70;99.90;;;;;;5074394;28;20531;-57
2024/03/07 06:49:10;;;;;;;19.90;9.20;;;4.80;1.00;;;;;;5072702;28;20531;-59
2024/03/07 06:51:37;;;;;;;19.13;11.18;;;4.70;99.90;;;;;;5076188;28;20485;-58
2024/03/07 06:54:05;;;;;;;18.20;9.77;;;4.60;99.90;;;;;;5076708;28;20425;-58
2024/03/07 06:56:33;;;;;;;16.98;10.25;;;4.40;1.00;;;;;;5075496;28;20432;-58
2024/03/07 06:59:04;;;;;;;15.35;9.15;;;4.40;1.00;;;;;;5075785;28;20515;-58
2024/03/07 07:01:31;;;;;;;19.90;10.30;;;4.40;1.00;;;;;;5076813;28;20485;-58
2024/03/07 07:03:58;;;;;;;15.23;9.20;;;4.50;1.00;;;;;;5076497;28;20562;-59
2024/03/07 07:06:26;;;;;;;17.27;8.73;;;4.70;99.90;;;;;;5076026;28;20439;-57
2024/03/07 07:08:53;;;;;;;17.23;9.53;;;4.80;99.90;;;;;;5077059;28;20419;-54
2024/03/07 07:11:20;;;;;;;16.17;8.73;;;4.90;99.90;;;;;;5084796;28;20509;-55
2024/03/07 07:13:48;;;;;;;18.30;9.13;;;4.90;99.90;;;;;;5073925;28;20438;-54
2024/03/07 07:16:18;;;;;;;14.73;7.55;;;4.80;99.90;;;;;;5075931;28;20453;-56
2024/03/07 07:18:45;;;;;;;15.85;9.75;;;4.90;99.90;;;;;;5076184;28;20935;-57
2024/03/07 07:21:15;;;;;;;19.42;9.20;;;4.90;99.90;;;;;;5075041;28;20523;-57
2024/03/07 07:23:44;;;;;;;15.23;7.22;;;4.70;1.00;;;;;;5094527;28;20773;-57
2024/03/07 07:26:10;;;;;;;15.23;8.98;;;5.00;1.00;;;;;;5096580;28;20414;-55
2024/03/07 07:28:38;;;;;;;15.20;8.60;;;5.00;1.00;;;;;;5095219;28;20508;-55
2024/03/07 07:31:06;;;;;;;11.98;7.07;;;5.50;1.00;;;;;;5096665;28;20465;-57
2024/03/07 07:33:33;;;;;;;14.87;8.00;;;5.60;99.90;;;;;;5096275;28;20520;-59
2024/03/07 07:36:00;;;;;;;16.83;8.20;;;5.70;99.90;;;;;;5079607;28;20529;-56
2024/03/07 07:38:27;;;;;;;17.77;8.40;;;5.60;99.90;;;;;;5074379;28;20439;-57
2024/03/07 07:40:54;;;;;;;14.38;8.75;;;5.30;99.90;;;;;;5074745;28;20510;-55
2024/03/07 07:43:21;;;;;;;15.45;8.70;;;5.10;99.90;;;;;;5074764;28;20518;-59
2024/03/07 07:45:47;;;;;;;15.13;8.43;;;5.00;99.90;;;;;;5075920;28;20523;-59
2024/03/07 07:48:16;;;;;;;16.42;8.80;;;5.00;1.00;;;;;;5073354;28;20514;-59
2024/03/07 07:50:43;;;;;;;15.35;8.88;;;4.90;1.00;;;;;;5074771;28;20443;-59
2024/03/07 07:53:10;;;;;;;15.93;8.30;;;4.70;1.00;;;;;;5075377;28;20508;-56
2024/03/07 07:55:38;;;;;;;15.05;8.18;;;5.00;1.00;;;;;;5076742;28;20506;-53
2024/03/07 07:58:05;;;;;;;17.13;8.60;;;5.00;1.00;;;;;;5077367;28;20436;-56
2024/03/07 08:00:32;;;;;;;13.85;8.38;;;4.80;99.90;;;;;;5094879;28;20413;-55
2024/03/07 08:03:00;;;;;;;15.38;9.32;;;4.80;1.00;;;;;;5078916;28;20522;-56
2024/03/07 08:05:33;;;;;;;18.30;8.30;;;4.80;1.00;;;;;;5076091;28;20533;-54
2024/03/07 08:08:02;;;;;;;17.73;10.18;;;4.90;1.00;;;;;;5075218;28;20411;-56
2024/03/07 08:10:31;;;;;;;14.52;9.05;;;5.00;99.90;;;;;;5067349;28;20540;-55
2024/03/07 08:12:58;;;;;;;13.40;7.20;;;4.90;99.90;;;;;;5067588;28;20775;-57
2024/03/07 08:15:29;;;;;;;14.73;7.65;;;5.40;1.00;;;;;;5063983;28;20459;-57
2024/03/07 08:17:56;;;;;;;16.95;9.07;;;5.40;1.00;;;;;;5061756;28;20527;-56
2024/03/07 08:20:25;;;;;;;16.70;9.32;;;5.30;99.90;;;;;;5062361;28;20503;-57
2024/03/07 08:22:55;;;;;;;15.93;8.02;;;5.30;99.90;;;;;;5064323;28;20453;-55
2024/03/07 08:25:26;;;;;;;13.98;7.65;;;5.70;1.00;;;;;;5064004;28;20427;-57
2024/03/07 08:27:56;;;;;;;13.30;6.88;;;5.80;99.90;;;;;;5049763;28;21067;-57
2024/03/07 08:30:23;;;;;;;14.43;7.38;;;6.00;99.90;;;;;;5046524;28;20964;-58
2024/03/07 08:32:52;;;;;;;13.60;7.25;;;6.00;99.90;;;;;;5043156;28;20430;-56
2024/03/07 08:35:20;;;;;;;13.80;7.25;;;5.90;1.00;;;;;;5042570;28;20431;-56
2024/03/07 08:37:49;;;;;;;12.85;7.55;;;5.80;1.00;;;;;;5044867;28;20900;-55
2024/03/07 08:40:20;;;;;;;12.77;6.70;;;6.00;99.90;;;;;;5045824;28;20503;-56
2024/03/07 08:42:50;;;;;;;11.07;5.82;;;6.10;1.00;;;;;;5046231;28;20927;-55
2024/03/07 08:45:19;;;;;;;12.73;6.85;;;6.50;1.00;;;;;;5041861;28;21020;-54
2024/03/07 08:47:47;;;;;;;11.90;7.25;;;6.30;99.90;;;;;;5043409;28;20428;-53
2024/03/07 08:50:16;;;;;;;17.35;8.02;;;6.00;99.90;;;;;;5045217;28;20427;-55
2024/03/07 08:52:44;;;;;;;15.65;7.75;;;6.30;99.90;;;;;;5041408;28;20511;-55
2024/03/07 08:55:14;;;;;;;12.60;7.35;;;6.30;99.90;;;;;;5053853;28;20453;-55
2024/03/07 08:57:43;;;;;;;13.73;6.85;;;6.60;99.90;;;;;;5055756;28;20429;-54
2024/03/07 09:00:15;;;;;;;12.77;6.80;;;6.90;1.00;;;;;;5064212;28;20421;-56
2024/03/07 09:02:43;;;;;;;11.20;6.15;;;6.90;99.90;;;;;;5055010;28;20496;-55
2024/03/07 09:05:10;;;;;;;13.80;8.25;;;7.00;89.30;;;;;;5055521;28;20437;-55
2024/03/07 09:07:37;;;;;;;13.20;6.65;;;7.00;99.90;;;;;;5055498;28;20435;-55
2024/03/07 09:10:06;;;;;;;15.07;7.57;;;6.80;99.90;;;;;;5055419;28;20528;-54
2024/03/07 09:12:34;;;;;;;11.32;6.07;;;6.80;1.00;;;;;;5054115;28;20742;-52
2024/03/07 09:15:03;;;;;;;13.05;6.80;;;6.70;1.00;;;;;;5051203;28;20439;-55
2024/03/07 09:17:30;;;;;;;12.93;6.38;;;6.60;99.90;;;;;;5044223;28;20851;-49
2024/03/07 09:19:57;;;;;;;12.32;7.10;;;6.60;99.90;;;;;;5043823;28;20516;-54
2024/03/07 09:22:24;;;;;;;13.60;7.47;;;6.70;99.90;;;;;;5046716;28;20862;-52
2024/03/07 09:24:51;;;;;;;11.52;6.03;;;6.70;1.00;;;;;;5044828;28;20564;-53
2024/03/07 09:27:19;;;;;;;11.63;6.57;;;7.00;99.90;;;;;;5057482;28;20762;-54
2024/03/07 09:29:47;;;;;;;15.40;8.02;;;7.60;1.00;;;;;;5065156;28;20564;-55
2024/03/07 09:32:15;;;;;;;14.05;8.18;;;7.70;1.00;;;;;;5064872;28;20429;-55
2024/03/07 09:34:42;;;;;;;13.15;7.03;;;7.60;24.90;;;;;;5063071;28;20468;-55
2024/03/07 09:37:10;;;;;;;13.02;7.20;;;7.00;99.90;;;;;;5065851;28;20442;-55
2024/03/07 09:39:37;;;;;;;12.93;7.80;;;7.10;1.00;;;;;;5062530;28;20875;-55
2024/03/07 09:42:04;;;;;;;15.17;7.93;;;6.90;1.00;;;;;;5063764;28;20429;-54
2024/03/07 09:44:34;;;;;;;12.07;6.90;;;6.70;43.60;;;;;;5064507;28;20518;-57
2024/03/07 09:47:02;;;;;;;14.30;7.75;;;7.10;1.00;;;;;;5064993;28;20435;-56
2024/03/07 09:49:31;;;;;;;17.80;8.07;;;7.50;99.90;;;;;;5064955;28;20437;-55
2024/03/07 09:52:01;;;;;;;13.50;8.15;;;7.70;1.00;;;;;;5066175;28;21004;-54
2024/03/07 09:54:31;;;;;;;12.85;7.60;;;7.50;99.90;;;;;;5072329;28;20432;-54
2024/03/07 09:57:02;;;;;;;13.98;7.82;;;7.30;99.90;;;;;;5073089;28;20509;-56
2024/03/07 09:59:33;;;;;;;11.50;7.23;;;7.80;1.00;;;;;;5060470;28;20437;-54
2024/03/07 10:02:01;;;;;;;13.88;8.07;;;7.80;74.20;;;;;;5061134;28;20429;-53
2024/03/07 10:04:37;;;;;;;15.10;7.80;;;7.70;1.00;;;;;;5063897;28;20428;-55
2024/03/07 10:07:11;;;;;;;16.20;8.93;;;7.90;53.80;;;;;;5056873;28;20433;-55
2024/03/07 10:09:40;;;;;;;13.03;7.03;;;7.90;99.90;;;;;;5056647;28;20432;-51
2024/03/07 10:12:09;;;;;;;14.27;7.27;;;8.10;1.00;;;;;;5058964;28;20447;-55
2024/03/07 10:14:38;;;;;;;13.73;7.85;;;8.00;1.00;;;;;;5077702;28;20431;-51
2024/03/07 10:17:05;;;;;;;15.80;7.65;;;8.10;1.00;;;;;;5076514;28;20498;-57
2024/03/07 10:19:34;;;;;;;16.45;8.57;;;8.50;1.00;;;;;;5077433;28;20771;-56
2024/03/07 10:22:01;;;;;;;13.35;7.35;;;8.60;99.90;;;;;;5077944;28;20724;-57
2024/03/07 10:24:28;;;;;;;13.10;7.97;;;8.80;99.90;;;;;;5077605;28;20484;-57
2024/03/07 10:26:57;;;;;;;9.05;5.63;;;8.70;99.90;;;;;;5077944;28;20518;-54
2024/03/07 10:29:24;;;;;;;13.57;9.02;;;8.70;99.90;;;;;;5078571;28;20438;-57
2024/03/07 10:31:52;;;;;;;16.20;7.97;;;8.40;99.90;;;;;;5078464;28;20825;-58
2024/03/07 10:34:20;;;;;;;11.87;6.80;;;7.90;99.90;;;;;;5077352;28;20431;-54
2024/03/07 10:36:48;;;;;;;12.68;7.85;;;8.00;99.90;;;;;;5076870;28;20518;-55
2024/03/07 10:39:16;;;;;;;13.77;7.30;;;7.90;36.60;;;;;;5076977;28;20916;-56
2024/03/07 10:41:47;;;;;;;12.43;6.05;;;7.90;99.90;;;;;;5077543;28;20434;-55
2024/03/07 10:44:23;;;;;;;14.48;6.70;;;7.70;99.90;;;;;;5076861;28;20426;-57
2024/03/07 10:46:54;;;;;;;13.80;6.90;;;7.70;99.90;;;;;;5077812;28;20586;-56
2024/03/07 10:49:24;;;;;;;13.73;8.88;;;8.10;1.00;;;;;;5078292;28;20599;-55
2024/03/07 10:52:00;;;;;;;16.67;8.10;;;8.50;99.90;;;;;;5078081;28;20426;-57
2024/03/07 10:54:38;;;;;;;17.50;8.35;;;8.60;99.90;;;;;;5076461;28;20438;-56
2024/03/07 10:57:16;;;;;;;15.65;8.20;;;8.60;99.90;;;;;;5073766;28;20427;-57
2024/03/07 10:59:50;;;;;;;13.45;8.00;;;8.40;99.90;;;;;;5070914;28;20460;-57
2024/03/07 11:02:28;;;;;;;16.08;8.05;;;8.40;1.00;;;;;;5075748;28;20524;-57
2024/03/07 11:04:57;;;;;;;14.95;8.00;;;8.40;1.00;;;;;;5065240;28;20439;-56
2024/03/07 11:07:27;;;;;;;16.80;8.40;;;8.30;1.00;;;;;;5067875;28;20535;-56
2024/03/07 11:09:56;;;;;;;15.45;8.30;;;8.50;99.90;;;;;;5070837;28;20431;-56
2024/03/07 11:12:27;;;;;;;13.17;7.27;;;8.50;99.90;;;;;;5072296;28;20997;-56
2024/03/07 11:14:56;;;;;;;15.95;9.73;;;8.50;99.90;;;;;;5071361;28;20706;-57
2024/03/07 11:17:24;;;;;;;15.65;7.53;;;8.40;99.90;;;;;;5074691;28;20482;-58
2024/03/07 11:19:51;;;;;;;15.65;9.10;;;8.60;99.90;;;;;;5075767;28;20514;-57
2024/03/07 11:22:41;;;;;;;14.23;8.73;;;8.80;1.00;;;;;;5067072;28;20469;-57
2024/03/07 11:25:10;;;;;;;16.25;7.78;;;9.10;99.90;;;;;;5064761;28;20490;-56
2024/03/07 11:27:39;;;;;;;15.45;7.82;;;8.70;99.90;;;;;;5075443;28;20428;-55
2024/03/07 11:30:08;;;;;;;16.55;8.80;;;9.00;73.80;;;;;;5066550;28;20563;-58
2024/03/07 11:32:37;;;;;;;14.68;7.70;;;9.40;1.00;;;;;;5063280;28;20439;-58
2024/03/07 11:35:07;;;;;;;14.95;8.07;;;9.70;99.90;;;;;;5063669;28;20433;-59
2024/03/07 11:37:46;;;;;;;17.05;9.38;;;9.60;99.90;;;;;;5074391;28;20439;-57
2024/03/07 11:40:44;;;;;;;14.98;8.52;;;9.40;99.90;;;;;;5067647;28;20567;-58
2024/03/07 11:43:13;;;;;;;13.90;7.53;;;9.60;99.90;;;;;;5047751;28;20582;-60
2024/03/07 11:45:52;;;;;;;16.90;9.82;;;9.70;99.90;;;;;;5066086;28;20855;-56
2024/03/07 11:48:27;;;;;;;20.83;9.18;;;9.50;99.90;;;;;;5078052;28;20493;-56
2024/03/07 11:50:55;;;;;;;15.27;8.40;;;9.30;99.90;;;;;;5065480;28;20535;-58
2024/03/07 11:53:23;;;;;;;17.45;9.52;;;9.40;99.90;;;;;;5066657;28;20703;-58
2024/03/07 11:55:54;;;;;;;16.63;8.98;;;9.50;99.90;;;;;;5063976;28;20447;-60
2024/03/07 11:58:22;;;;;;;18.53;8.10;;;9.50;99.90;;;;;;5067171;28;20423;-63
2024/03/07 12:00:51;;;;;;;15.02;8.98;;;9.70;99.90;;;;;;5066202;28;20847;-63
2024/03/07 12:03:21;;;;;;;14.95;8.60;;;9.70;99.90;;;;;;5070667;28;20763;-64
2024/03/07 12:05:48;;;;;;;17.17;8.02;;;9.30;99.90;;;;;;5066936;28;20765;-59
2024/03/07 12:08:15;;;;;;;17.15;9.05;;;8.90;99.90;;;;;;5072835;28;20443;-60
2024/03/07 12:10:45;;;;;;;17.13;8.43;;;8.50;52.00;;;;;;5064320;28;20550;-60
2024/03/07 12:13:15;;;;;;;15.88;8.55;;;8.50;99.90;;;;;;5064448;28;20480;-60
2024/03/07 12:15:43;;;;;;;15.18;7.95;;;8.50;99.90;;;;;;5069169;28;20448;-60
2024/03/07 12:18:14;;;;;;;16.40;8.80;;;8.70;99.90;;;;;;5059913;28;20450;-60
2024/03/07 12:20:50;;;;;;;14.77;8.00;;;8.80;1.00;;;;;;5069831;28;20441;-60
2024/03/07 12:23:19;;;;;;;17.17;9.70;;;9.00;99.90;;;;;;5074926;28;20443;-62
2024/03/07 12:25:47;;;;;;;15.85;7.97;;;8.40;1.00;;;;;;5072086;28;20844;-60
2024/03/07 12:28:17;;;;;;;14.75;7.22;;;8.60;99.90;;;;;;5073569;28;20524;-61
2024/03/07 12:30:52;;;;;;;12.43;7.40;;;8.60;1.00;;;;;;5065921;28;20435;-60
2024/03/07 12:33:20;;;;;;;16.20;8.60;;;8.60;1.00;;;;;;5081850;28;20437;-61
2024/03/07 12:35:49;;;;;;;19.95;10.38;;;8.50;99.90;;;;;;5058314;28;20508;-60
2024/03/07 12:38:17;;;;;;;14.77;8.90;;;8.20;99.90;;;;;;5066156;28;20440;-60
2024/03/07 12:40:45;;;;;;;17.97;9.10;;;8.40;99.90;;;;;;5062871;28;20514;-60
2024/03/07 12:43:19;;;;;;;15.88;7.25;;;8.20;99.90;;;;;;5068970;28;20504;-60
2024/03/07 12:45:49;;;;;;;16.40;8.50;;;8.50;1.00;;;;;;5063378;28;20525;-60
2024/03/07 12:48:21;;;;;;;17.23;9.07;;;8.80;99.90;;;;;;5067603;28;20465;-61
2024/03/07 12:50:53;;;;;;;20.43;13.23;;;9.00;70.90;;;;;;5068336;28;20440;-60
2024/03/07 12:53:21;;;;;;;16.90;10.60;;;9.20;52.40;;;;;;5066870;28;20443;-62